createdAt,value
2017-11-03T00:02:13.280Z,85.70
2017-11-03T00:04:47.209Z,85.50
2017-11-03T00:07:21.025Z,85.60
2017-11-03T00:09:55.544Z,85.90
2017-11-03T00:12:30.550Z,86.40
2017-11-03T00:15:04.593Z,85.90
2017-11-03T00:17:38.429Z,86.10
2017-11-03T00:20:13.114Z,86.60
2017-11-03T00:22:47.243Z,86.50
2017-11-03T00:25:21.226Z,86.60
2017-11-03T00:27:55.749Z,87.20
2017-11-03T00:30:29.889Z,87.10
2017-11-03T00:33:03.897Z,87.30
2017-11-03T00:35:37.907Z,87.30
2017-11-03T00:38:11.671Z,87.30
2017-11-03T00:40:45.492Z,87.40
2017-11-03T00:43:19.609Z,87.10
2017-11-03T00:45:55.591Z,86.80
2017-11-03T00:48:29.393Z,86.80
2017-11-03T00:51:03.893Z,86.80
2017-11-03T00:53:38.421Z,87.00
2017-11-03T00:56:12.010Z,87.10
2017-11-03T00:58:46.054Z,87.10
2017-11-03T01:01:19.769Z,86.70
2017-11-03T01:03:53.458Z,87.20
2017-11-03T01:06:28.078Z,87.30
2017-11-03T01:09:02.075Z,87.20
2017-11-03T01:11:36.600Z,87.40
2017-11-03T01:14:10.511Z,87.40
2017-11-03T01:16:44.520Z,88.30
2017-11-03T01:19:18.305Z,87.50
2017-11-03T01:21:52.255Z,87.70
2017-11-03T01:24:27.064Z,87.90
2017-11-03T01:27:01.662Z,87.90
2017-11-03T01:29:35.841Z,87.90
2017-11-03T01:32:09.589Z,88.00
2017-11-03T01:34:43.233Z,89.00
2017-11-03T01:37:18.139Z,89.10
2017-11-03T01:39:52.050Z,89.00
2017-11-03T01:42:26.109Z,89.00
2017-11-03T01:45:00.239Z,89.10
2017-11-03T01:47:33.887Z,88.70
2017-11-03T01:50:07.974Z,89.30
2017-11-03T01:52:41.931Z,89.30
2017-11-03T01:55:16.301Z,89.20
2017-11-03T01:57:51.028Z,89.60
2017-11-03T02:00:24.688Z,89.20
2017-11-03T02:02:58.535Z,88.70
2017-11-03T02:05:33.910Z,89.50
2017-11-03T02:08:08.383Z,88.70
2017-11-03T02:10:42.936Z,88.50
2017-11-03T02:13:17.744Z,88.50
2017-11-03T02:15:52.791Z,88.40
2017-11-03T02:18:26.964Z,88.40
2017-11-03T02:21:01.618Z,88.50
2017-11-03T02:23:35.670Z,88.80
2017-11-03T02:26:09.638Z,88.70
2017-11-03T02:28:43.567Z,88.40
2017-11-03T02:31:17.474Z,88.00
2017-11-03T02:33:52.094Z,88.20
2017-11-03T02:36:26.053Z,86.50
2017-11-03T02:39:00.866Z,86.60
2017-11-03T02:41:34.841Z,85.80
2017-11-03T02:44:09.986Z,86.00
2017-11-03T02:46:43.859Z,85.40
2017-11-03T02:49:18.303Z,85.30
2017-11-03T02:51:52.702Z,85.20
2017-11-03T02:54:27.468Z,85.30
2017-11-03T02:57:01.123Z,84.50
2017-11-03T02:59:35.266Z,84.50
2017-11-03T03:02:10.100Z,84.60
2017-11-03T03:04:43.809Z,84.50
2017-11-03T03:07:17.989Z,84.70
2017-11-03T03:09:52.209Z,84.50
2017-11-03T03:12:26.635Z,85.20
2017-11-03T03:15:01.768Z,84.70
2017-11-03T03:17:35.888Z,84.90
2017-11-03T03:20:10.243Z,85.30
2017-11-03T03:22:44.488Z,84.70
2017-11-03T03:25:19.002Z,85.40
2017-11-03T03:27:53.505Z,85.00
2017-11-03T03:30:27.353Z,85.00
2017-11-03T03:33:01.945Z,84.90
2017-11-03T03:35:37.033Z,85.00
2017-11-03T03:38:11.137Z,85.20
2017-11-03T03:40:45.736Z,85.80
2017-11-03T03:43:19.914Z,85.50
2017-11-03T03:45:53.775Z,85.90
2017-11-03T03:48:27.479Z,85.90
2017-11-03T03:51:02.049Z,86.50
2017-11-03T03:53:36.342Z,85.60
2017-11-03T03:56:10.798Z,85.70
2017-11-03T03:58:44.787Z,85.60
2017-11-03T04:01:20.039Z,85.90
2017-11-03T04:03:54.176Z,85.60
2017-11-03T04:06:28.236Z,85.40
2017-11-03T04:09:02.821Z,85.10
2017-11-03T04:11:36.769Z,85.20
2017-11-03T04:14:11.793Z,85.90
2017-11-03T04:16:45.809Z,85.50
2017-11-03T04:19:19.973Z,85.80
2017-11-03T04:21:54.448Z,87.20
2017-11-03T04:24:28.366Z,87.30
2017-11-03T04:27:03.171Z,88.50
2017-11-03T04:29:37.222Z,87.60
2017-11-03T04:32:12.019Z,88.10
2017-11-03T04:34:46.295Z,86.50
2017-11-03T04:37:20.933Z,87.70
2017-11-03T04:39:55.086Z,87.10
2017-11-03T04:42:30.292Z,86.80
2017-11-03T04:45:05.041Z,86.70
2017-11-03T04:47:39.444Z,86.60
2017-11-03T04:50:13.993Z,87.20
2017-11-03T04:52:48.047Z,86.90
2017-11-03T04:55:22.924Z,87.40
2017-11-03T04:57:57.467Z,86.90
2017-11-03T05:00:31.033Z,86.80
2017-11-03T05:03:05.169Z,86.80
2017-11-03T05:05:39.770Z,86.90
2017-11-03T05:08:14.286Z,87.60
2017-11-03T05:10:48.836Z,87.00
2017-11-03T05:13:23.342Z,87.60
2017-11-03T05:15:58.058Z,87.40
2017-11-03T05:18:32.897Z,87.60
2017-11-03T05:21:08.554Z,88.30
2017-11-03T05:23:42.280Z,87.90
2017-11-03T05:26:17.103Z,87.90
2017-11-03T05:28:50.997Z,88.30
2017-11-03T05:31:26.221Z,88.80
2017-11-03T05:34:00.736Z,88.30
2017-11-03T05:36:35.126Z,88.10
2017-11-03T05:39:09.105Z,87.80
2017-11-03T05:41:42.910Z,87.90
2017-11-03T05:44:18.028Z,88.40
2017-11-03T05:46:52.244Z,87.70
2017-11-03T05:49:26.130Z,87.70
2017-11-03T05:51:59.839Z,87.70
2017-11-03T05:54:34.473Z,88.00
2017-11-03T05:57:09.274Z,87.80
2017-11-03T05:59:43.388Z,87.10
2017-11-03T06:02:17.537Z,86.80
2017-11-03T06:04:52.309Z,86.60
2017-11-03T06:07:26.772Z,86.10
2017-11-03T06:10:01.487Z,85.70
2017-11-03T06:12:35.621Z,85.70
2017-11-03T06:15:09.314Z,85.40
2017-11-03T06:17:43.539Z,85.20
2017-11-03T06:20:17.841Z,84.90
2017-11-03T06:22:52.483Z,84.70
2017-11-03T06:25:27.308Z,85.20
2017-11-03T06:28:01.512Z,84.60
2017-11-03T06:30:35.574Z,84.60
2017-11-03T06:33:10.207Z,84.60
2017-11-03T06:35:43.838Z,83.30
2017-11-03T06:38:17.491Z,83.40
2017-11-03T06:40:51.578Z,83.70
2017-11-03T06:43:25.616Z,83.50
2017-11-03T06:46:00.522Z,83.40
2017-11-03T06:48:35.039Z,83.10
2017-11-03T06:51:09.102Z,83.10
2017-11-03T06:53:42.908Z,83.20
2017-11-03T06:56:17.312Z,82.80
2017-11-03T07:01:26.835Z,82.90
2017-11-03T07:04:01.259Z,82.50
2017-11-03T07:06:35.570Z,82.40
2017-11-03T07:09:10.079Z,82.70
2017-11-03T07:11:43.958Z,82.10
2017-11-03T07:14:17.933Z,82.00
2017-11-03T07:16:51.894Z,81.30
2017-11-03T07:19:25.931Z,80.50
2017-11-03T07:21:59.934Z,80.90
2017-11-03T07:24:34.162Z,80.10
2017-11-03T07:27:08.675Z,79.20
2017-11-03T07:29:43.160Z,78.60
2017-11-03T07:32:17.159Z,77.70
2017-11-03T07:34:51.164Z,77.30
2017-11-03T07:37:25.852Z,76.50
2017-11-03T07:40:00.101Z,75.60
2017-11-03T07:42:34.054Z,75.30
2017-11-03T07:45:08.495Z,75.30
2017-11-03T07:47:43.230Z,74.80
2017-11-03T07:50:17.658Z,72.90
2017-11-03T07:52:51.813Z,70.30
2017-11-03T07:55:25.554Z,68.70
2017-11-03T07:57:59.432Z,68.20
2017-11-03T08:00:33.254Z,69.10
2017-11-03T08:03:07.118Z,69.20
2017-11-03T08:05:41.063Z,69.20
2017-11-03T08:08:15.667Z,69.50
2017-11-03T08:10:50.174Z,69.50
2017-11-03T08:13:24.456Z,70.00
2017-11-03T08:15:58.234Z,69.50
2017-11-03T08:18:32.970Z,70.20
2017-11-03T08:21:07.222Z,69.10
2017-11-03T08:23:41.202Z,69.40
2017-11-03T08:26:16.544Z,68.40
2017-11-03T08:28:51.569Z,68.40
2017-11-03T08:31:25.688Z,67.10
2017-11-03T08:34:00.277Z,67.10
2017-11-03T08:36:34.713Z,67.80
2017-11-03T08:39:10.507Z,68.50
2017-11-03T08:41:45.045Z,67.90
2017-11-03T08:44:19.732Z,67.80
2017-11-03T08:46:54.653Z,68.70
2017-11-03T08:49:30.324Z,68.50
2017-11-03T08:52:04.712Z,67.80
2017-11-03T08:54:39.660Z,67.30
2017-11-03T08:57:14.017Z,68.00
2017-11-03T08:59:48.501Z,68.60
2017-11-03T09:02:22.689Z,68.30
2017-11-03T09:04:56.487Z,68.40
2017-11-03T09:07:30.269Z,69.10
2017-11-03T09:10:04.114Z,67.90
2017-11-03T09:12:38.455Z,67.20
2017-11-03T09:15:13.456Z,67.30
2017-11-03T09:17:47.941Z,65.60
2017-11-03T09:20:23.049Z,62.00
2017-11-03T09:22:57.161Z,57.40
2017-11-03T09:25:30.927Z,57.00
2017-11-03T09:28:04.777Z,52.50
2017-11-03T09:30:38.715Z,45.60
2017-11-03T09:33:13.315Z,45.50
2017-11-03T09:35:48.136Z,46.40
2017-11-03T09:38:22.012Z,47.10
2017-11-03T09:40:55.932Z,46.30
2017-11-03T09:43:29.699Z,44.40
2017-11-03T09:46:04.496Z,44.10
2017-11-03T09:48:38.513Z,43.90
2017-11-03T09:51:12.553Z,41.30
2017-11-03T09:53:46.513Z,40.40
2017-11-03T09:56:20.117Z,40.00
2017-11-03T09:58:54.013Z,40.80
2017-11-03T10:01:28.702Z,41.00
2017-11-03T10:04:03.972Z,38.80
2017-11-03T10:06:37.652Z,37.60
2017-11-03T10:09:12.824Z,38.00
2017-11-03T10:11:48.125Z,38.80
2017-11-03T10:14:22.431Z,38.80
2017-11-03T10:16:56.304Z,41.80
2017-11-03T10:19:31.428Z,44.60
2017-11-03T10:22:05.049Z,45.70
2017-11-03T10:24:39.432Z,46.60
2017-11-03T10:27:14.584Z,48.20
2017-11-03T10:29:48.409Z,48.80
2017-11-03T10:32:23.949Z,50.60
2017-11-03T10:37:35.421Z,50.60
2017-11-03T10:40:09.726Z,50.50
2017-11-03T10:42:43.476Z,49.80
2017-11-03T10:45:17.377Z,49.10
2017-11-03T10:47:51.356Z,47.50
2017-11-03T10:50:25.685Z,45.40
2017-11-03T10:53:01.060Z,44.80
2017-11-03T10:55:35.074Z,43.60
2017-11-03T10:58:09.002Z,42.90
2017-11-03T11:00:42.768Z,42.10
2017-11-03T11:03:17.484Z,41.30
2017-11-03T11:05:53.133Z,40.80
2017-11-03T11:08:27.434Z,40.30
2017-11-03T11:11:02.234Z,40.60
2017-11-03T11:13:36.329Z,40.20
2017-11-03T11:16:10.727Z,40.00
2017-11-03T11:18:45.231Z,41.00
2017-11-03T11:21:20.449Z,41.70
2017-11-03T11:23:54.879Z,41.10
2017-11-03T11:26:28.889Z,40.70
2017-11-03T11:29:03.525Z,41.20
2017-11-03T11:31:38.359Z,43.10
2017-11-03T11:34:12.279Z,44.30
2017-11-03T11:36:46.375Z,44.50
2017-11-03T11:39:21.396Z,46.20
2017-11-03T11:41:55.323Z,45.70
2017-11-03T11:44:29.829Z,46.70
2017-11-03T11:47:03.835Z,46.00
2017-11-03T11:49:38.454Z,46.60
2017-11-03T11:52:12.513Z,46.20
2017-11-03T11:54:47.409Z,47.00
2017-11-03T11:57:21.885Z,47.70
2017-11-03T11:59:56.287Z,47.90
2017-11-03T12:02:31.561Z,47.40
2017-11-03T12:05:06.479Z,47.60
2017-11-03T12:07:40.681Z,47.90
2017-11-03T12:10:14.653Z,48.10
2017-11-03T12:12:48.593Z,47.60
2017-11-03T12:15:23.604Z,48.20
2017-11-03T12:17:58.198Z,48.00
2017-11-03T12:20:32.697Z,47.40
2017-11-03T12:23:07.583Z,48.00
2017-11-03T12:25:41.929Z,48.80
2017-11-03T12:28:17.320Z,48.00
2017-11-03T12:30:52.207Z,47.70
2017-11-03T12:33:27.263Z,49.10
2017-11-03T12:36:01.413Z,48.20
2017-11-03T12:38:36.563Z,48.70
2017-11-03T12:41:10.646Z,48.30
2017-11-03T12:43:44.641Z,48.20
2017-11-03T12:46:18.893Z,47.40
2017-11-03T12:48:53.020Z,48.10
2017-11-03T12:51:26.923Z,48.40
2017-11-03T12:54:01.376Z,49.60
2017-11-03T12:59:11.579Z,50.50
2017-11-03T13:01:46.071Z,51.10
2017-11-03T13:04:19.805Z,48.80
2017-11-03T13:06:54.842Z,51.90
2017-11-03T13:09:30.172Z,52.50
2017-11-03T13:12:05.002Z,52.20
2017-11-03T13:14:40.262Z,52.70
2017-11-03T13:17:15.185Z,52.70
2017-11-03T13:19:50.235Z,54.60
2017-11-03T13:22:24.793Z,55.00
2017-11-03T13:24:58.519Z,55.50
2017-11-03T13:27:32.800Z,54.90
2017-11-03T13:32:46.474Z,55.50
2017-11-03T13:37:58.807Z,55.90
2017-11-03T13:40:32.632Z,56.40
2017-11-03T13:43:07.921Z,57.40
2017-11-03T13:45:43.203Z,57.50
2017-11-03T13:48:18.256Z,58.30
2017-11-03T13:50:54.343Z,58.80
2017-11-03T13:53:29.602Z,59.00
2017-11-03T13:56:03.654Z,58.80
2017-11-03T13:58:37.450Z,59.40
2017-11-03T14:01:11.510Z,59.20
2017-11-03T14:03:46.435Z,59.30
2017-11-03T14:06:21.026Z,60.00
2017-11-03T14:08:56.020Z,60.30
2017-11-03T14:11:31.100Z,60.30
2017-11-03T14:14:05.557Z,60.80
2017-11-03T14:16:40.717Z,61.00
2017-11-03T14:19:16.033Z,62.10
2017-11-03T14:21:50.410Z,62.80
2017-11-03T14:24:24.298Z,62.70
2017-11-03T14:26:58.410Z,62.70
2017-11-03T14:29:32.649Z,63.00
2017-11-03T14:32:07.343Z,63.50
2017-11-03T14:34:41.487Z,63.20
2017-11-03T14:37:16.098Z,62.80
2017-11-03T14:39:50.205Z,63.80
2017-11-03T14:42:23.957Z,63.90
2017-11-03T14:44:58.573Z,64.40
2017-11-03T14:47:34.341Z,65.30
2017-11-03T14:50:08.913Z,65.40
2017-11-03T14:52:42.959Z,66.10
2017-11-03T14:55:17.993Z,66.40
2017-11-03T14:57:53.578Z,66.60
2017-11-03T15:00:28.629Z,67.60
2017-11-03T15:03:03.155Z,67.70
2017-11-03T15:05:38.074Z,67.80
2017-11-03T15:08:12.351Z,67.90
2017-11-03T15:10:47.629Z,68.10
2017-11-03T15:13:21.498Z,68.30
2017-11-03T15:15:55.297Z,68.70
2017-11-03T15:18:30.569Z,68.80
2017-11-03T15:21:05.326Z,69.10
2017-11-03T15:23:39.990Z,69.10
2017-11-03T15:26:15.853Z,69.40
2017-11-03T15:28:50.808Z,69.70
2017-11-03T15:31:25.206Z,70.10
2017-11-03T15:34:00.030Z,70.20
2017-11-03T15:36:34.663Z,70.70
2017-11-03T15:39:10.117Z,71.00
2017-11-03T15:44:21.569Z,71.40
2017-11-03T15:49:30.961Z,71.40
2017-11-03T15:52:05.474Z,71.60
2017-11-03T15:54:40.241Z,71.70
2017-11-03T15:57:18.698Z,72.10
2017-11-03T15:59:52.818Z,72.30
2017-11-03T16:02:28.257Z,72.50
2017-11-03T16:05:02.646Z,73.30
2017-11-03T16:07:37.920Z,72.20
2017-11-03T16:10:14.318Z,73.00
2017-11-03T16:12:48.957Z,72.30
2017-11-03T16:15:23.951Z,72.40
2017-11-03T16:17:58.071Z,72.50
2017-11-03T16:20:31.877Z,73.00
2017-11-03T16:23:06.447Z,73.30
2017-11-03T16:25:41.505Z,73.30
2017-11-03T16:28:16.366Z,73.40
2017-11-03T16:30:50.972Z,74.00
2017-11-03T16:33:25.543Z,73.80
2017-11-03T16:36:00.751Z,73.90
2017-11-03T16:38:35.068Z,74.10
2017-11-03T16:41:10.525Z,74.20
2017-11-03T16:43:44.625Z,74.30
2017-11-03T16:46:20.302Z,74.40
2017-11-03T16:48:54.172Z,74.30
2017-11-03T16:51:28.697Z,74.60
2017-11-03T16:54:03.742Z,74.60
2017-11-03T16:56:38.561Z,75.30
2017-11-03T16:59:13.295Z,74.80
2017-11-03T17:01:47.623Z,74.50
2017-11-03T17:04:22.752Z,74.60
2017-11-03T17:06:57.885Z,74.40
2017-11-03T17:09:34.049Z,74.60
2017-11-03T17:12:09.088Z,75.20
2017-11-03T17:14:43.851Z,74.70
2017-11-03T17:17:18.907Z,75.30
2017-11-03T17:19:53.486Z,74.80
2017-11-03T17:22:28.468Z,74.80
2017-11-03T17:25:03.071Z,74.90
2017-11-03T17:27:37.387Z,75.00
2017-11-03T17:30:11.456Z,75.20
2017-11-03T17:32:46.056Z,74.90
2017-11-03T17:37:56.779Z,75.50
2017-11-03T17:40:31.405Z,75.10
2017-11-03T17:43:06.346Z,74.90
2017-11-03T17:45:40.605Z,75.40
2017-11-03T17:48:15.473Z,75.00
2017-11-03T17:50:49.915Z,75.20
2017-11-03T17:53:24.726Z,75.40
2017-11-03T17:55:59.148Z,75.70
2017-11-03T17:58:33.490Z,76.10
2017-11-03T18:01:08.229Z,76.10
2017-11-03T18:03:42.584Z,76.10
2017-11-03T18:06:17.205Z,76.20
2017-11-03T18:08:52.363Z,76.20
2017-11-03T18:11:26.376Z,76.50
2017-11-03T18:14:01.302Z,76.70
2017-11-03T18:16:35.884Z,76.80
2017-11-03T18:19:10.840Z,77.10
2017-11-03T18:21:45.689Z,76.80
2017-11-03T18:24:20.105Z,77.20
2017-11-03T18:26:55.730Z,77.50
2017-11-03T18:29:30.898Z,77.60
2017-11-03T18:32:05.183Z,76.90
2017-11-03T18:34:39.225Z,77.10
2017-11-03T18:37:13.704Z,77.50
2017-11-03T18:39:48.857Z,77.00
2017-11-03T18:42:23.315Z,77.00
2017-11-03T18:44:57.309Z,77.10
2017-11-03T18:47:31.627Z,77.10
2017-11-03T18:50:06.567Z,77.10
2017-11-03T18:52:41.337Z,77.10
2017-11-03T18:55:15.498Z,77.20
2017-11-03T18:57:49.547Z,77.20
2017-11-03T19:00:28.236Z,77.10
2017-11-03T19:03:05.981Z,77.10
2017-11-03T19:05:40.471Z,77.10
2017-11-03T19:08:16.106Z,77.80
2017-11-03T19:10:52.784Z,77.20
2017-11-03T19:13:27.689Z,77.50
2017-11-03T19:16:02.011Z,77.70
2017-11-03T19:18:36.747Z,77.80
2017-11-03T19:21:11.393Z,77.90
2017-11-03T19:23:45.228Z,78.10
2017-11-03T19:26:23.335Z,78.20
2017-11-03T19:28:58.953Z,78.90
2017-11-03T19:31:33.814Z,78.50
2017-11-03T19:34:09.074Z,79.30
2017-11-03T19:36:45.115Z,78.90
2017-11-03T19:39:20.187Z,79.20
2017-11-03T19:41:55.269Z,79.30
2017-11-03T19:47:07.609Z,79.60
2017-11-03T19:49:41.221Z,79.80
2017-11-03T19:52:16.148Z,80.00
2017-11-03T19:54:50.664Z,80.20
2017-11-03T19:57:25.096Z,80.40
2017-11-03T19:59:59.827Z,80.70
2017-11-03T20:02:34.662Z,80.90
2017-11-03T20:05:09.512Z,80.80
2017-11-03T20:07:44.377Z,80.70
2017-11-03T20:10:18.123Z,80.80
2017-11-03T20:12:53.030Z,80.90
2017-11-03T20:15:28.741Z,80.90
2017-11-03T20:18:02.957Z,80.90
2017-11-03T20:23:13.695Z,81.30
2017-11-03T20:25:48.940Z,81.60
2017-11-03T20:28:23.372Z,81.80
2017-11-03T20:30:57.406Z,81.80
2017-11-03T20:33:31.859Z,81.70
2017-11-03T20:36:05.845Z,81.80
2017-11-03T20:38:41.213Z,81.90
2017-11-03T20:41:15.448Z,81.90
2017-11-03T20:43:50.232Z,81.90
2017-11-03T20:46:24.999Z,81.80
2017-11-03T20:49:00.961Z,82.40
2017-11-03T20:51:35.544Z,82.00
2017-11-03T20:54:09.738Z,81.90
2017-11-03T20:56:44.146Z,81.90
2017-11-03T20:59:19.458Z,82.00
2017-11-03T21:01:54.582Z,82.20
2017-11-03T21:04:29.143Z,82.70
2017-11-03T21:07:03.228Z,82.10
2017-11-03T21:09:37.697Z,82.10
2017-11-03T21:12:13.049Z,82.10
2017-11-03T21:14:47.848Z,82.10
2017-11-03T21:17:22.025Z,82.10
2017-11-03T21:19:57.040Z,82.70
2017-11-03T21:22:31.052Z,82.10
2017-11-03T21:25:06.211Z,82.30
2017-11-03T21:27:41.606Z,82.60
2017-11-03T21:30:16.917Z,82.70
2017-11-03T21:32:51.469Z,82.10
2017-11-03T21:35:25.991Z,82.60
2017-11-03T21:37:59.849Z,82.10
2017-11-03T21:40:34.004Z,82.10
2017-11-03T21:43:08.577Z,82.10
2017-11-03T21:45:43.117Z,82.80
2017-11-03T21:48:17.297Z,82.20
2017-11-03T21:50:51.309Z,82.20
2017-11-03T21:53:26.295Z,82.70
2017-11-03T21:56:01.136Z,82.80
2017-11-03T21:58:35.605Z,82.20
2017-11-03T22:01:10.533Z,82.10
2017-11-03T22:03:45.227Z,82.10
2017-11-03T22:06:19.779Z,82.10
2017-11-03T22:08:54.228Z,82.20
2017-11-03T22:11:29.594Z,83.50
2017-11-03T22:14:03.451Z,82.20
2017-11-03T22:16:37.333Z,82.10
2017-11-03T22:19:12.414Z,82.00
2017-11-03T22:21:47.662Z,81.80
2017-11-03T22:24:22.002Z,81.80
2017-11-03T22:26:56.452Z,81.60
2017-11-03T22:29:30.845Z,81.60
2017-11-03T22:32:06.204Z,81.40
2017-11-03T22:37:16.873Z,82.00
2017-11-03T22:39:51.661Z,83.50
2017-11-03T22:42:26.282Z,83.10
2017-11-03T22:45:01.439Z,83.70
2017-11-03T22:47:36.480Z,83.40
2017-11-03T22:50:10.897Z,83.50
2017-11-03T22:52:46.044Z,83.60
2017-11-03T22:55:20.305Z,83.60
2017-11-03T22:57:54.913Z,83.40
2017-11-03T23:00:29.379Z,83.50
2017-11-03T23:03:04.286Z,83.50
2017-11-03T23:05:38.015Z,83.50
2017-11-03T23:08:12.581Z,83.50
2017-11-03T23:10:47.689Z,84.10
2017-11-03T23:13:21.922Z,83.70
2017-11-03T23:15:57.838Z,84.20
2017-11-03T23:18:32.110Z,83.70
2017-11-03T23:21:06.600Z,83.80
2017-11-03T23:23:40.443Z,83.80
2017-11-03T23:26:14.295Z,83.90
2017-11-03T23:28:49.177Z,83.90
2017-11-03T23:31:23.647Z,83.80
2017-11-03T23:33:57.625Z,84.00
2017-11-03T23:36:32.521Z,83.80
2017-11-03T23:39:07.492Z,83.80
2017-11-03T23:41:41.154Z,84.00
2017-11-03T23:44:15.790Z,84.50
2017-11-03T23:46:51.605Z,84.50
2017-11-03T23:49:25.276Z,84.10
2017-11-03T23:51:59.914Z,84.10
2017-11-03T23:54:34.690Z,84.10
2017-11-03T23:57:09.253Z,84.10
2017-11-03T23:59:43.901Z,84.70
